Time;durP1;ratioP1;P1;durP2;ratioP2;P2;SDS_P1;SDS_P2;PMS_P1;PMS_P2;Temp;Humidity;BMP_temperature;BMP_pressure;BME280_temperature;BME280_humidity;BME280_pressure;Samples;Min_cycle;Max_cycle;Signal;HPM_P1;HPM_P2
2022/01/19 00:00:12;;;;;;;15.00;4.33;;;0.00;99.90;;;;;;5049257;28;20515;-67
2022/01/19 00:02:40;;;;;;;7.93;4.07;;;0.20;99.90;;;;;;5049940;28;20453;-67
2022/01/19 00:05:09;;;;;;;11.20;4.90;;;0.30;99.90;;;;;;5050045;28;21233;-68
2022/01/19 00:07:36;;;;;;;11.33;4.60;;;0.40;99.90;;;;;;5049817;28;20457;-68
2022/01/19 00:10:09;;;;;;;9.00;4.73;;;0.50;99.90;;;;;;5049816;28;20454;-68
2022/01/19 00:12:37;;;;;;;8.40;5.30;;;0.60;99.90;;;;;;5049854;28;20450;-67
2022/01/19 00:15:06;;;;;;;7.43;4.10;;;0.60;99.90;;;;;;5049783;28;20484;-67
2022/01/19 00:17:34;;;;;;;8.50;4.80;;;0.60;99.90;;;;;;5049926;28;20477;-67
2022/01/19 00:20:01;;;;;;;8.60;4.80;;;0.50;99.90;;;;;;5049450;28;20850;-67
2022/01/19 00:22:28;;;;;;;9.40;4.80;;;0.70;99.90;;;;;;5049691;28;20495;-67
2022/01/19 00:24:55;;;;;;;9.10;4.87;;;0.80;99.90;;;;;;5049475;28;21032;-67
2022/01/19 00:27:24;;;;;;;13.37;4.87;;;0.70;99.90;;;;;;5049775;28;20867;-66
2022/01/19 00:29:51;;;;;;;9.03;4.87;;;0.80;99.90;;;;;;5049867;28;20547;-66
2022/01/19 00:32:19;;;;;;;8.90;4.50;;;0.80;99.90;;;;;;5049834;28;20453;-67
2022/01/19 00:34:46;;;;;;;7.43;3.80;;;0.80;99.90;;;;;;5049248;28;20528;-68
2022/01/19 00:37:13;;;;;;;6.77;3.80;;;0.80;99.90;;;;;;5049523;28;20469;-68
2022/01/19 00:39:40;;;;;;;14.90;4.80;;;0.80;99.90;;;;;;5049404;28;20465;-68
2022/01/19 00:42:07;;;;;;;10.37;4.13;;;0.80;99.90;;;;;;5049555;28;20485;-67
2022/01/19 00:44:38;;;;;;;8.27;4.23;;;0.80;99.90;;;;;;5049418;28;20481;-69
2022/01/19 00:47:05;;;;;;;7.60;3.80;;;0.70;99.90;;;;;;5049448;28;20450;-68
2022/01/19 00:49:32;;;;;;;8.07;4.33;;;0.60;99.90;;;;;;5049178;28;20490;-67
2022/01/19 00:51:59;;;;;;;13.07;4.43;;;0.60;99.90;;;;;;5049164;28;20449;-67
2022/01/19 00:54:26;;;;;;;9.90;3.93;;;0.80;99.90;;;;;;5049273;28;20520;-67
2022/01/19 00:56:53;;;;;;;13.00;4.97;;;0.90;99.90;;;;;;5049102;28;20458;-68
2022/01/19 00:59:21;;;;;;;7.87;4.37;;;1.00;99.90;;;;;;5049337;28;20503;-67
2022/01/19 01:01:49;;;;;;;6.00;4.20;;;1.10;99.90;;;;;;5048915;28;20810;-67
2022/01/19 01:04:16;;;;;;;10.90;5.20;;;1.10;99.90;;;;;;5048848;28;20892;-68
2022/01/19 01:06:43;;;;;;;9.40;4.00;;;1.00;99.90;;;;;;5049080;28;20446;-67
2022/01/19 01:09:11;;;;;;;9.53;4.40;;;0.90;99.90;;;;;;5049237;28;20562;-68
2022/01/19 01:11:46;;;;;;;9.33;4.80;;;0.90;99.90;;;;;;5052510;28;20503;-67
2022/01/19 01:17:13;;;;;;;8.97;4.13;;;0.80;99.90;;;;;;5053192;28;20495;-68
2022/01/19 01:19:40;;;;;;;11.07;5.10;;;0.70;99.90;;;;;;5052505;28;20854;-68
2022/01/19 01:22:07;;;;;;;6.97;3.97;;;0.80;99.90;;;;;;5053175;28;20452;-69
2022/01/19 01:24:34;;;;;;;10.67;5.57;;;0.80;99.90;;;;;;5052930;28;20473;-68
2022/01/19 01:27:01;;;;;;;8.80;5.37;;;0.70;99.90;;;;;;5052879;28;20480;-66
2022/01/19 01:29:28;;;;;;;9.40;5.00;;;0.60;99.90;;;;;;5052882;28;20543;-67
2022/01/19 01:31:55;;;;;;;8.33;4.57;;;0.40;99.90;;;;;;5052443;28;20462;-67
2022/01/19 01:34:24;;;;;;;10.07;4.20;;;0.40;99.90;;;;;;5052778;28;20481;-68
2022/01/19 01:36:52;;;;;;;11.50;5.93;;;0.50;99.90;;;;;;5052879;28;20527;-67
2022/01/19 01:39:19;;;;;;;8.60;4.60;;;0.30;99.90;;;;;;5052676;28;20456;-68
2022/01/19 01:41:46;;;;;;;9.67;5.30;;;0.40;99.90;;;;;;5052975;28;20450;-68
2022/01/19 01:44:14;;;;;;;9.93;5.53;;;0.40;99.90;;;;;;5052252;28;20994;-67
2022/01/19 01:46:48;;;;;;;10.07;4.80;;;0.40;99.90;;;;;;5052653;28;20457;-67
2022/01/19 01:49:21;;;;;;;8.83;3.93;;;0.50;99.90;;;;;;5052595;28;20484;-67
2022/01/19 01:54:34;;;;;;;9.00;4.90;;;0.50;99.90;;;;;;5052357;28;20453;-67
2022/01/19 01:57:01;;;;;;;9.60;4.70;;;0.50;99.90;;;;;;5052323;28;20450;-67
2022/01/19 01:59:28;;;;;;;11.23;5.53;;;0.40;99.90;;;;;;5052086;28;20472;-67
2022/01/19 02:01:55;;;;;;;9.83;4.87;;;0.30;99.90;;;;;;5052424;28;20960;-67
2022/01/19 02:04:23;;;;;;;11.43;5.30;;;0.40;99.90;;;;;;5051877;28;20463;-67
2022/01/19 02:07:15;;;;;;;8.57;4.50;;;0.10;99.90;;;;;;5052056;28;20461;-67
2022/01/19 02:09:44;;;;;;;9.67;4.63;;;0.20;99.90;;;;;;5052322;28;20488;-67
2022/01/19 02:23:19;;;;;;;9.23;5.03;;;0.20;99.90;;;;;;5050895;28;20592;-68
2022/01/19 02:25:49;;;;;;;8.97;4.53;;;0.20;99.90;;;;;;5051653;28;20461;-67
2022/01/19 02:42:11;;;;;;;7.40;4.60;;;-0.10;99.90;;;;;;5051407;28;20449;-68
2022/01/19 02:46:38;;;;;;;9.13;4.50;;;-0.10;99.90;;;;;;5051289;28;20521;-70
2022/01/19 02:50:15;;;;;;;12.03;4.97;;;-0.20;99.90;;;;;;5051418;28;20845;-67
2022/01/19 02:52:43;;;;;;;6.37;3.50;;;-0.20;99.90;;;;;;5051464;28;20452;-68
2022/01/19 02:55:11;;;;;;;8.67;4.43;;;-0.30;99.90;;;;;;5051104;28;20480;-68
2022/01/19 02:57:39;;;;;;;8.53;4.23;;;-0.30;99.90;;;;;;5051394;28;20961;-68
2022/01/19 03:11:07;;;;;;;6.90;4.10;;;-0.20;99.90;;;;;;5050724;28;20438;-68
2022/01/19 03:13:34;;;;;;;8.00;4.63;;;-0.30;99.90;;;;;;5050910;28;20481;-67
2022/01/19 03:16:01;;;;;;;9.50;3.90;;;-0.50;99.90;;;;;;5050859;28;20507;-67
2022/01/19 03:18:28;;;;;;;10.50;4.77;;;-0.40;99.90;;;;;;5051096;28;20523;-68
2022/01/19 03:20:55;;;;;;;10.10;4.90;;;-0.50;99.90;;;;;;5050724;28;20491;-68
2022/01/19 03:23:24;;;;;;;9.93;4.97;;;-0.50;99.90;;;;;;5050867;28;20484;-68
2022/01/19 03:25:53;;;;;;;8.63;4.70;;;-0.40;99.90;;;;;;5050467;28;20475;-68
2022/01/19 03:28:20;;;;;;;11.30;5.20;;;-0.40;99.90;;;;;;5050703;28;20463;-68
2022/01/19 03:30:48;;;;;;;6.67;4.00;;;-0.50;99.90;;;;;;5050554;28;20993;-68
2022/01/19 03:33:16;;;;;;;8.37;4.23;;;-0.50;99.90;;;;;;5050411;28;20446;-66
2022/01/19 03:35:43;;;;;;;7.30;4.83;;;-0.40;99.90;;;;;;5050523;28;20484;-67
2022/01/19 03:38:12;;;;;;;5.73;3.60;;;-0.40;99.90;;;;;;5050426;28;20456;-67
2022/01/19 03:40:41;;;;;;;9.53;4.23;;;-0.40;99.90;;;;;;5050437;28;20540;-67
2022/01/19 03:43:09;;;;;;;9.17;4.23;;;-0.50;99.90;;;;;;5050393;28;20482;-67
2022/01/19 03:45:36;;;;;;;11.50;5.07;;;-0.50;99.90;;;;;;5050448;28;20448;-67
2022/01/19 03:48:19;;;;;;;7.00;3.63;;;-0.40;99.90;;;;;;5050424;28;20903;-67
2022/01/19 03:50:47;;;;;;;10.90;3.87;;;-0.30;99.90;;;;;;5050153;28;20583;-67
2022/01/19 03:53:14;;;;;;;5.93;3.53;;;-0.40;99.90;;;;;;5050210;28;20765;-68
2022/01/19 03:55:42;;;;;;;7.50;3.80;;;-0.40;99.90;;;;;;5050312;28;20454;-68
2022/01/19 03:58:09;;;;;;;7.80;3.70;;;-0.40;99.90;;;;;;5050120;28;20952;-67
2022/01/19 04:00:41;;;;;;;7.33;3.80;;;-0.30;99.90;;;;;;5050214;28;20445;-68
2022/01/19 04:03:11;;;;;;;8.97;4.07;;;-0.40;99.90;;;;;;5049938;28;20813;-68
2022/01/19 04:05:56;;;;;;;8.57;4.23;;;-0.40;99.90;;;;;;5050276;28;20778;-66
2022/01/19 04:08:23;;;;;;;8.40;3.90;;;-0.30;99.90;;;;;;5050094;28;20461;-68
2022/01/19 04:10:52;;;;;;;6.73;4.30;;;-0.20;99.90;;;;;;5049997;28;20894;-67
2022/01/19 04:13:32;;;;;;;14.03;5.30;;;-0.30;99.90;;;;;;5049785;28;20456;-67
2022/01/19 04:16:00;;;;;;;9.00;4.60;;;-0.30;99.90;;;;;;5049890;28;20464;-67
2022/01/19 04:18:27;;;;;;;8.90;4.50;;;-0.30;99.90;;;;;;5049444;28;21028;-68
2022/01/19 04:20:54;;;;;;;6.70;3.67;;;-0.20;99.90;;;;;;5049389;28;20495;-68
2022/01/19 04:23:22;;;;;;;9.50;4.23;;;-0.20;99.90;;;;;;5049858;28;20450;-68
2022/01/19 04:25:51;;;;;;;13.67;4.27;;;-0.20;99.90;;;;;;5049758;28;20547;-68
2022/01/19 04:28:18;;;;;;;18.70;4.63;;;-0.20;99.90;;;;;;5049714;28;20463;-68
2022/01/19 04:30:45;;;;;;;7.33;4.53;;;-0.10;99.90;;;;;;5049353;28;20847;-67
2022/01/19 04:33:16;;;;;;;7.80;3.80;;;-0.10;99.90;;;;;;5049574;28;20474;-68
2022/01/19 04:35:50;;;;;;;10.80;3.70;;;-0.10;99.90;;;;;;5049584;28;20493;-67
2022/01/19 05:03:31;;;;;;;6.93;4.43;;;0.00;99.90;;;;;;5049261;28;20434;-67
2022/01/19 05:06:02;;;;;;;13.23;5.77;;;0.10;99.90;;;;;;5049236;28;20469;-67
2022/01/19 05:14:03;;;;;;;9.90;4.10;;;0.10;99.90;;;;;;5049472;28;20941;-67
2022/01/19 05:16:30;;;;;;;7.20;4.60;;;0.20;99.90;;;;;;5049078;28;20482;-68
2022/01/19 05:18:57;;;;;;;8.20;4.70;;;0.30;99.90;;;;;;5048742;28;20500;-68
2022/01/19 05:21:24;;;;;;;6.40;3.77;;;0.30;99.90;;;;;;5049124;28;20474;-68
2022/01/19 05:23:52;;;;;;;9.73;4.43;;;0.30;99.90;;;;;;5048695;28;20450;-69
2022/01/19 05:26:19;;;;;;;8.93;4.97;;;0.20;99.90;;;;;;5049300;28;20904;-68
2022/01/19 05:28:46;;;;;;;7.80;4.53;;;0.20;99.90;;;;;;5049132;28;20473;-68
2022/01/19 05:31:15;;;;;;;9.13;5.07;;;0.00;99.90;;;;;;5048883;28;20497;-68
2022/01/19 05:33:42;;;;;;;6.20;4.50;;;0.00;99.90;;;;;;5048636;28;20446;-68
2022/01/19 05:36:09;;;;;;;7.70;4.17;;;-0.10;99.90;;;;;;5047625;28;20870;-65
2022/01/19 05:38:36;;;;;;;12.53;5.17;;;0.00;99.90;;;;;;5049081;28;20446;-67
2022/01/19 05:41:03;;;;;;;10.83;5.10;;;0.10;99.90;;;;;;5048677;28;20776;-72
2022/01/19 05:43:30;;;;;;;9.07;5.20;;;0.00;99.90;;;;;;5048780;28;20930;-72
2022/01/19 05:45:57;;;;;;;9.80;5.20;;;0.00;99.90;;;;;;5048797;28;20462;-72
2022/01/19 05:48:25;;;;;;;9.67;4.93;;;0.10;99.90;;;;;;5048852;28;20521;-70
2022/01/19 05:50:53;;;;;;;13.00;6.20;;;0.00;99.90;;;;;;5049006;28;20497;-71
2022/01/19 05:53:20;;;;;;;9.60;5.33;;;-0.10;99.90;;;;;;5049189;28;20479;-73
2022/01/19 05:55:47;;;;;;;10.93;5.50;;;-0.10;99.90;;;;;;5048930;28;20453;-71
2022/01/19 05:58:15;;;;;;;11.03;5.23;;;-0.20;99.90;;;;;;5051089;28;20458;-75
2022/01/19 06:00:42;;;;;;;11.17;6.10;;;0.00;99.90;;;;;;5052646;28;20457;-79
2022/01/19 06:03:09;;;;;;;10.83;5.37;;;0.00;99.90;;;;;;5052249;28;20533;-71
2022/01/19 06:05:37;;;;;;;10.73;4.60;;;0.00;99.90;;;;;;5052555;28;20454;-69
2022/01/19 06:08:28;;;;;;;10.20;5.00;;;0.00;99.90;;;;;;5052405;28;20463;-71
2022/01/19 06:10:55;;;;;;;9.87;5.20;;;0.00;99.90;;;;;;5052123;28;20486;-75
2022/01/19 06:13:24;;;;;;;9.10;5.60;;;0.10;99.90;;;;;;5053470;28;20973;-74
2022/01/19 06:15:52;;;;;;;11.70;5.60;;;0.10;99.90;;;;;;5055586;28;20864;-74
2022/01/19 06:18:20;;;;;;;13.80;5.73;;;0.10;99.90;;;;;;5057498;28;20482;-70
2022/01/19 06:20:49;;;;;;;9.20;5.10;;;0.10;99.90;;;;;;5053938;28;20555;-71
2022/01/19 06:23:16;;;;;;;10.70;5.67;;;0.10;99.90;;;;;;5053249;28;20526;-74
2022/01/19 06:25:43;;;;;;;9.83;5.40;;;0.20;99.90;;;;;;5052110;28;20464;-73
2022/01/19 06:28:11;;;;;;;12.30;6.00;;;0.30;99.90;;;;;;5052027;28;20926;-74
2022/01/19 06:30:38;;;;;;;14.37;7.50;;;0.20;99.90;;;;;;5051945;28;20823;-72
2022/01/19 06:33:06;;;;;;;11.10;5.93;;;0.40;99.90;;;;;;5051592;28;20476;-72
2022/01/19 06:35:33;;;;;;;12.47;6.00;;;0.30;99.90;;;;;;5051680;28;20469;-72
2022/01/19 06:38:02;;;;;;;9.93;5.80;;;0.40;99.90;;;;;;5051284;28;20461;-69
2022/01/19 06:40:29;;;;;;;13.63;6.87;;;0.30;99.90;;;;;;5051432;28;20496;-72
2022/01/19 06:42:56;;;;;;;12.70;5.80;;;0.30;99.90;;;;;;5051615;28;20961;-73
2022/01/19 06:45:24;;;;;;;16.53;6.53;;;0.30;99.90;;;;;;5051417;28;20503;-70
2022/01/19 06:47:51;;;;;;;12.53;6.93;;;0.40;99.90;;;;;;5051481;28;20462;-71
2022/01/19 06:50:20;;;;;;;11.07;6.30;;;0.50;99.90;;;;;;5050899;28;20492;-69
2022/01/19 06:52:48;;;;;;;13.23;7.57;;;0.40;99.90;;;;;;5051465;28;20458;-77
2022/01/19 06:55:17;;;;;;;12.43;6.47;;;0.40;99.90;;;;;;5051390;28;20543;-71
2022/01/19 06:57:45;;;;;;;15.80;7.00;;;0.40;99.90;;;;;;5051324;28;20789;-69
2022/01/19 07:00:14;;;;;;;12.50;5.80;;;0.30;99.90;;;;;;5051201;28;20543;-69
2022/01/19 07:02:41;;;;;;;16.20;6.77;;;0.40;99.90;;;;;;5051031;28;20503;-67
2022/01/19 07:05:09;;;;;;;12.30;6.40;;;0.60;99.90;;;;;;5050863;28;20470;-68
2022/01/19 07:07:36;;;;;;;13.47;7.07;;;0.50;99.90;;;;;;5050660;28;20458;-67
2022/01/19 07:10:04;;;;;;;9.30;6.20;;;0.40;99.90;;;;;;5050900;28;20978;-72
2022/01/19 07:12:33;;;;;;;9.57;6.67;;;0.40;99.90;;;;;;5050982;28;20454;-71
2022/01/19 07:15:00;;;;;;;11.70;6.50;;;0.50;99.90;;;;;;5050651;28;20482;-76
2022/01/19 07:17:27;;;;;;;11.23;7.37;;;0.60;99.90;;;;;;5050536;28;20534;-70
2022/01/19 07:19:54;;;;;;;17.13;7.37;;;0.60;99.90;;;;;;5049016;28;20544;-69
2022/01/19 07:22:22;;;;;;;17.90;6.70;;;0.70;99.90;;;;;;5050596;28;20457;-72
2022/01/19 07:24:49;;;;;;;12.27;6.73;;;0.80;99.90;;;;;;5050380;28;20496;-75
2022/01/19 07:27:16;;;;;;;14.23;6.73;;;0.90;99.90;;;;;;5050315;28;20454;-75
2022/01/19 07:29:45;;;;;;;11.83;7.23;;;0.90;99.90;;;;;;5050510;28;20457;-76
2022/01/19 07:32:12;;;;;;;19.50;7.70;;;1.00;99.90;;;;;;5050308;28;20458;-74
2022/01/19 07:34:40;;;;;;;14.57;7.93;;;1.00;99.90;;;;;;5050395;28;20511;-76
2022/01/19 07:37:07;;;;;;;12.50;6.47;;;1.10;99.90;;;;;;5050847;28;20503;-76
2022/01/19 07:39:34;;;;;;;12.40;7.27;;;1.00;99.90;;;;;;5050641;28;20469;-75
2022/01/19 07:42:01;;;;;;;13.13;7.00;;;1.20;99.90;;;;;;5050737;28;20775;-74
2022/01/19 07:44:28;;;;;;;15.40;8.53;;;1.40;99.90;;;;;;5050224;28;20474;-76
2022/01/19 07:46:57;;;;;;;12.93;9.00;;;1.40;99.90;;;;;;5050107;28;20455;-73
2022/01/19 07:49:24;;;;;;;13.70;7.40;;;1.50;99.90;;;;;;5050143;28;20458;-74
2022/01/19 07:51:51;;;;;;;12.13;7.43;;;1.60;99.90;;;;;;5049953;28;21035;-74
2022/01/19 07:54:18;;;;;;;12.20;6.23;;;1.50;99.90;;;;;;5050326;28;20926;-74
2022/01/19 07:56:47;;;;;;;16.27;8.83;;;1.80;99.90;;;;;;5049890;28;20460;-73
2022/01/19 07:59:14;;;;;;;15.07;7.37;;;1.80;99.90;;;;;;5049797;28;20516;-73
2022/01/19 08:01:41;;;;;;;17.20;7.47;;;1.80;99.90;;;;;;5049578;28;20474;-73
2022/01/19 08:04:10;;;;;;;10.37;6.43;;;1.80;99.90;;;;;;5050137;28;20473;-71
2022/01/19 08:06:37;;;;;;;16.77;8.40;;;2.10;99.90;;;;;;5050111;28;20847;-72
2022/01/19 08:09:05;;;;;;;19.50;8.10;;;2.30;99.90;;;;;;5050287;28;20453;-73
2022/01/19 08:11:32;;;;;;;17.10;8.23;;;2.50;99.90;;;;;;5049976;28;20967;-72
2022/01/19 08:13:59;;;;;;;10.83;7.03;;;2.60;99.90;;;;;;5050300;28;20457;-72
2022/01/19 08:16:26;;;;;;;23.80;6.93;;;2.60;99.90;;;;;;5049662;28;20452;-73
2022/01/19 08:18:53;;;;;;;14.47;7.00;;;2.30;99.90;;;;;;5049748;28;20456;-72
2022/01/19 08:21:22;;;;;;;9.60;5.80;;;2.20;99.90;;;;;;5049005;28;20476;-74
2022/01/19 08:23:49;;;;;;;13.73;6.40;;;2.10;99.90;;;;;;5050022;28;20455;-75
2022/01/19 08:26:16;;;;;;;11.53;6.10;;;2.30;99.90;;;;;;5049939;28;20446;-73
2022/01/19 08:28:44;;;;;;;19.20;6.00;;;2.40;99.90;;;;;;5049737;28;20494;-73
2022/01/19 08:31:11;;;;;;;11.50;6.67;;;2.60;99.90;;;;;;5049586;28;20488;-76
2022/01/19 08:33:38;;;;;;;9.30;4.07;;;2.70;99.90;;;;;;5048303;28;20458;-71
2022/01/19 08:36:05;;;;;;;13.43;6.10;;;2.50;99.90;;;;;;5049280;28;20529;-70
2022/01/19 08:38:34;;;;;;;10.10;5.90;;;2.50;99.90;;;;;;5049497;28;20522;-70
2022/01/19 08:41:01;;;;;;;10.43;5.67;;;2.60;99.90;;;;;;5049415;28;20966;-71
2022/01/19 08:43:28;;;;;;;10.37;5.40;;;2.80;99.90;;;;;;5049304;28;20470;-71
2022/01/19 08:45:56;;;;;;;11.60;5.43;;;2.60;99.90;;;;;;5049473;28;20460;-72
2022/01/19 08:48:25;;;;;;;8.70;5.67;;;2.60;99.90;;;;;;5049373;28;20454;-70
2022/01/19 08:50:52;;;;;;;11.70;5.50;;;2.50;99.90;;;;;;5049299;28;20485;-70
2022/01/19 08:53:19;;;;;;;11.00;5.30;;;2.50;99.90;;;;;;5047676;28;20491;-70
2022/01/19 08:55:48;;;;;;;10.57;6.73;;;2.30;99.90;;;;;;5049413;28;20461;-73
2022/01/19 08:58:15;;;;;;;9.77;5.47;;;2.20;99.90;;;;;;5049405;28;20455;-73
2022/01/19 09:00:42;;;;;;;11.77;6.63;;;2.30;99.90;;;;;;5049449;28;20457;-71
2022/01/19 09:03:10;;;;;;;12.30;6.27;;;2.60;99.90;;;;;;5047650;28;20456;-70
2022/01/19 09:05:37;;;;;;;15.47;6.60;;;2.80;99.90;;;;;;5049499;28;20791;-71
2022/01/19 09:08:05;;;;;;;11.23;6.47;;;3.20;99.90;;;;;;5049958;28;20845;-67
2022/01/19 09:10:32;;;;;;;12.80;5.67;;;3.70;99.90;;;;;;5049107;28;20588;-66
2022/01/19 09:13:00;;;;;;;7.50;5.90;;;4.20;99.90;;;;;;5049490;28;20450;-71
2022/01/19 09:15:28;;;;;;;11.10;6.30;;;4.50;99.20;;;;;;5049520;28;20460;-72
2022/01/19 09:17:55;;;;;;;8.60;5.77;;;4.60;97.70;;;;;;5049149;28;20453;-70
2022/01/19 09:20:22;;;;;;;10.23;5.30;;;4.80;96.60;;;;;;5048634;28;20493;-71
2022/01/19 09:22:50;;;;;;;14.77;7.20;;;4.90;95.50;;;;;;5048937;28;20460;-70
2022/01/19 09:25:17;;;;;;;10.60;5.87;;;5.00;95.30;;;;;;5049152;28;20593;-70
2022/01/19 09:27:44;;;;;;;9.13;5.93;;;5.40;94.50;;;;;;5048903;28;20528;-69
2022/01/19 09:30:15;;;;;;;14.50;6.47;;;5.30;93.20;;;;;;5048821;28;20466;-69
2022/01/19 09:32:44;;;;;;;12.97;5.37;;;5.30;94.10;;;;;;5050494;28;20811;-70
2022/01/19 09:35:13;;;;;;;12.37;5.97;;;5.40;92.50;;;;;;5052785;28;20483;-70
2022/01/19 09:37:40;;;;;;;12.40;5.50;;;5.50;92.50;;;;;;5052854;28;20444;-71
2022/01/19 09:40:09;;;;;;;17.07;6.87;;;5.50;92.00;;;;;;5052588;28;20444;-70
2022/01/19 09:42:36;;;;;;;12.80;5.90;;;5.60;91.50;;;;;;5052498;28;20430;-73
2022/01/19 09:45:04;;;;;;;13.43;5.83;;;5.80;91.80;;;;;;5052732;28;20465;-73
2022/01/19 09:47:33;;;;;;;10.60;6.00;;;6.00;89.70;;;;;;5052187;28;20463;-73
2022/01/19 09:50:00;;;;;;;11.03;7.20;;;6.10;89.80;;;;;;5052621;28;20517;-74
2022/01/19 09:52:27;;;;;;;13.10;5.50;;;6.20;88.70;;;;;;5052627;28;21085;-73
2022/01/19 09:54:56;;;;;;;9.27;4.90;;;6.20;87.80;;;;;;5052363;28;20862;-73
2022/01/19 09:57:23;;;;;;;8.27;5.00;;;6.10;87.20;;;;;;5052548;28;21282;-74
2022/01/19 09:59:50;;;;;;;9.73;4.93;;;5.90;86.50;;;;;;5052384;28;20793;-72
2022/01/19 10:02:17;;;;;;;6.90;5.03;;;5.80;87.90;;;;;;5052382;28;20461;-80
2022/01/19 10:04:48;;;;;;;10.33;5.00;;;6.10;86.50;;;;;;5052523;28;20475;-82
2022/01/19 10:07:18;;;;;;;9.33;5.50;;;6.20;85.20;;;;;;5052503;28;20506;-74
2022/01/19 10:09:53;;;;;;;8.30;4.80;;;6.10;84.70;;;;;;5052272;28;20490;-71
2022/01/19 10:18:12;;;;;;;14.80;5.17;;;6.50;82.70;;;;;;5051579;28;20491;-70
2022/01/19 10:20:41;;;;;;;9.90;4.90;;;6.60;81.80;;;;;;5051644;28;20719;-73
2022/01/19 10:23:36;;;;;;;10.00;5.30;;;6.80;81.40;;;;;;5051903;28;20453;-73
2022/01/19 10:26:04;;;;;;;11.60;6.10;;;6.70;80.20;;;;;;5052002;28;20465;-70
2022/01/19 10:28:32;;;;;;;12.30;5.80;;;6.80;80.20;;;;;;5052152;28;20504;-70
2022/01/19 10:31:02;;;;;;;11.73;5.33;;;7.00;80.30;;;;;;5051833;28;20485;-72
2022/01/19 10:33:29;;;;;;;9.17;4.90;;;7.30;79.70;;;;;;5051700;28;21022;-73
2022/01/19 10:36:02;;;;;;;8.80;4.90;;;7.60;77.50;;;;;;5051889;28;20569;-73
2022/01/19 10:38:29;;;;;;;11.23;5.83;;;7.60;77.50;;;;;;5051504;28;20900;-73
2022/01/19 10:41:09;;;;;;;15.20;5.73;;;8.10;76.80;;;;;;5051776;28;20455;-70
2022/01/19 10:43:39;;;;;;;12.27;7.20;;;8.00;73.80;;;;;;5050714;28;20572;-72
2022/01/19 10:46:27;;;;;;;13.50;5.10;;;8.10;74.20;;;;;;5051662;28;20499;-72
2022/01/19 10:49:00;;;;;;;9.23;5.20;;;8.30;72.80;;;;;;5051035;28;20465;-71
2022/01/19 10:51:33;;;;;;;10.70;5.40;;;8.30;73.60;;;;;;5051395;28;20498;-71
2022/01/19 10:54:15;;;;;;;10.03;5.10;;;8.40;73.30;;;;;;5051045;28;20827;-72
2022/01/19 10:56:44;;;;;;;10.93;5.60;;;8.70;71.10;;;;;;5051225;28;20459;-74
2022/01/19 10:59:14;;;;;;;11.00;6.50;;;8.60;70.80;;;;;;5051469;28;20449;-73
2022/01/19 11:01:45;;;;;;;14.83;6.80;;;8.50;70.80;;;;;;5051254;28;20446;-71
2022/01/19 11:04:28;;;;;;;9.30;5.93;;;8.60;70.90;;;;;;5051252;28;20524;-75
2022/01/19 11:07:01;;;;;;;12.30;5.87;;;8.80;70.60;;;;;;5051176;28;20465;-70
2022/01/19 11:09:29;;;;;;;9.17;6.43;;;8.90;68.30;;;;;;5051190;28;20953;-72
2022/01/19 11:12:00;;;;;;;18.07;6.83;;;8.90;68.60;;;;;;5051111;28;20543;-77
2022/01/19 11:14:28;;;;;;;12.50;6.47;;;9.10;67.90;;;;;;5050842;28;20478;-73
2022/01/19 11:16:55;;;;;;;9.77;6.00;;;9.20;67.10;;;;;;5050997;28;20475;-73
2022/01/19 11:19:23;;;;;;;9.83;6.03;;;9.20;66.80;;;;;;5050515;28;20496;-74
2022/01/19 11:22:20;;;;;;;13.00;6.53;;;9.30;67.70;;;;;;5051059;28;20544;-75
2022/01/19 11:25:01;;;;;;;11.00;6.10;;;9.50;67.80;;;;;;5050598;28;20469;-65
2022/01/19 11:27:35;;;;;;;8.67;5.53;;;9.60;67.00;;;;;;5050733;28;20461;-72
2022/01/19 11:30:15;;;;;;;9.87;6.30;;;9.60;64.90;;;;;;5050688;28;20464;-74
2022/01/19 11:32:44;;;;;;;10.40;7.00;;;9.80;65.90;;;;;;5050827;28;20516;-77
2022/01/19 11:35:33;;;;;;;15.77;7.87;;;10.20;63.10;;;;;;5050762;28;20504;-73
2022/01/19 11:38:02;;;;;;;10.80;6.30;;;10.20;62.40;;;;;;5050517;28;20967;-76
2022/01/19 11:40:40;;;;;;;13.93;6.60;;;10.10;61.60;;;;;;5050358;28;20950;-73
2022/01/19 11:43:23;;;;;;;10.70;6.60;;;10.10;62.40;;;;;;5050382;28;20457;-73
2022/01/19 11:45:51;;;;;;;11.67;6.60;;;10.00;61.30;;;;;;5050517;28;20486;-74
2022/01/19 11:48:21;;;;;;;12.37;6.50;;;10.10;62.00;;;;;;5050160;28;20454;-70
2022/01/19 11:50:48;;;;;;;14.70;6.60;;;10.40;62.50;;;;;;5050676;28;20786;-71
2022/01/19 11:53:17;;;;;;;11.87;6.47;;;10.60;60.00;;;;;;5050261;28;20523;-72
2022/01/19 11:56:08;;;;;;;12.80;6.60;;;10.80;60.40;;;;;;5050153;28;20458;-75
2022/01/19 11:58:35;;;;;;;11.70;6.37;;;11.40;59.60;;;;;;5050183;28;20511;-75
2022/01/19 12:01:04;;;;;;;10.50;5.87;;;11.90;59.00;;;;;;5051598;28;20537;-71
2022/01/19 12:03:33;;;;;;;9.77;6.20;;;12.20;57.70;;;;;;5055231;28;21080;-73
2022/01/19 12:06:00;;;;;;;9.13;5.00;;;12.70;56.10;;;;;;5056009;28;20464;-72
2022/01/19 12:08:32;;;;;;;12.47;6.00;;;12.90;55.20;;;;;;5058677;28;20450;-73
2022/01/19 12:11:13;;;;;;;10.27;6.17;;;12.70;53.90;;;;;;5055953;28;20458;-74
2022/01/19 12:13:56;;;;;;;9.77;6.40;;;12.80;54.70;;;;;;5050512;28;20528;-75
2022/01/19 12:16:33;;;;;;;9.80;7.00;;;12.90;53.30;;;;;;5050197;28;20446;-72
2022/01/19 12:19:13;;;;;;;12.53;7.60;;;13.40;53.30;;;;;;5049239;28;20462;-75
2022/01/19 12:21:44;;;;;;;11.20;7.33;;;13.30;53.00;;;;;;5049764;28;20454;-74
2022/01/19 12:24:37;;;;;;;11.00;6.93;;;13.50;52.70;;;;;;5049827;28;20491;-75
2022/01/19 12:27:30;;;;;;;13.67;7.17;;;13.70;52.80;;;;;;5049823;28;20810;-74
2022/01/19 12:30:11;;;;;;;8.30;6.30;;;14.20;51.60;;;;;;5049508;28;20458;-74
2022/01/19 12:32:49;;;;;;;16.27;7.73;;;14.20;50.60;;;;;;5050015;28;20485;-72
2022/01/19 12:35:35;;;;;;;14.27;9.03;;;14.10;50.10;;;;;;5049921;28;20465;-70
2022/01/19 12:38:08;;;;;;;11.80;8.43;;;13.70;50.90;;;;;;5049918;28;20515;-74
2022/01/19 12:40:48;;;;;;;17.80;9.20;;;13.50;50.60;;;;;;5049484;28;20548;-72
2022/01/19 12:43:37;;;;;;;11.87;6.70;;;13.70;51.30;;;;;;5049540;28;20535;-72
2022/01/19 12:46:07;;;;;;;13.80;7.30;;;13.00;50.40;;;;;;5049658;28;20456;-75
2022/01/19 12:48:36;;;;;;;13.80;6.73;;;12.90;51.90;;;;;;5049631;28;20451;-71
2022/01/19 12:51:04;;;;;;;14.30;6.30;;;13.40;51.10;;;;;;5049696;28;20453;-72
2022/01/19 12:53:31;;;;;;;10.50;6.80;;;13.40;50.40;;;;;;5049184;28;20493;-76
2022/01/19 12:56:02;;;;;;;13.17;7.30;;;13.10;51.00;;;;;;5049401;28;20854;-73
2022/01/19 12:58:33;;;;;;;16.53;8.10;;;13.10;51.50;;;;;;5049606;28;20512;-71
2022/01/19 13:01:04;;;;;;;11.53;7.43;;;12.80;51.30;;;;;;5049163;28;20503;-73
2022/01/19 13:03:34;;;;;;;10.93;7.10;;;12.70;51.10;;;;;;5049326;28;20549;-74
2022/01/19 13:06:05;;;;;;;13.90;7.77;;;12.60;51.00;;;;;;5049656;28;20923;-70
2022/01/19 13:08:41;;;;;;;14.20;7.53;;;12.60;51.00;;;;;;5053707;28;20456;-70
2022/01/19 13:11:26;;;;;;;17.40;7.97;;;12.50;51.60;;;;;;5053452;28;20460;-70
2022/01/19 13:13:59;;;;;;;10.27;7.50;;;12.70;51.60;;;;;;5053197;28;20470;-67
2022/01/19 13:16:38;;;;;;;11.37;5.90;;;12.90;52.50;;;;;;5053125;28;20450;-70
2022/01/19 13:19:10;;;;;;;10.50;6.63;;;13.50;51.70;;;;;;5052737;28;20519;-69
2022/01/19 13:21:38;;;;;;;12.90;7.20;;;13.80;50.40;;;;;;5053062;28;20537;-70
2022/01/19 13:24:11;;;;;;;13.00;7.63;;;13.60;50.30;;;;;;5052895;28;20473;-69
2022/01/19 13:26:43;;;;;;;13.80;7.60;;;13.60;50.50;;;;;;5052650;28;20461;-69
2022/01/19 13:29:22;;;;;;;12.83;7.23;;;13.50;50.00;;;;;;5052823;28;20512;-68
2022/01/19 13:31:57;;;;;;;12.67;7.40;;;13.60;50.30;;;;;;5052692;28;20838;-70
2022/01/19 13:34:25;;;;;;;14.03;7.27;;;14.00;50.30;;;;;;5052512;28;20801;-71
2022/01/19 13:36:58;;;;;;;13.40;8.57;;;14.10;49.40;;;;;;5052962;28;20458;-69
2022/01/19 13:39:25;;;;;;;17.13;7.90;;;14.30;49.00;;;;;;5052826;28;20545;-69
2022/01/19 13:41:57;;;;;;;12.07;7.27;;;14.50;48.50;;;;;;5052657;28;20924;-70
2022/01/19 13:44:30;;;;;;;11.60;7.47;;;14.30;49.40;;;;;;5052648;28;20556;-69
2022/01/19 13:47:09;;;;;;;13.40;7.70;;;14.20;48.30;;;;;;5052810;28;20454;-69
2022/01/19 13:49:37;;;;;;;15.10;8.03;;;14.20;48.70;;;;;;5052366;28;20452;-70
2022/01/19 13:52:05;;;;;;;9.70;7.60;;;14.40;48.80;;;;;;5052547;28;20558;-70
2022/01/19 13:54:36;;;;;;;15.63;8.10;;;14.30;48.20;;;;;;5052479;28;20473;-71
2022/01/19 13:57:05;;;;;;;15.40;7.23;;;14.00;48.60;;;;;;5052323;28;20993;-71
2022/01/19 13:59:32;;;;;;;14.93;8.00;;;14.10;48.30;;;;;;5052165;28;20511;-69
2022/01/19 14:02:02;;;;;;;13.93;9.00;;;13.70;48.70;;;;;;5052339;28;20459;-70
2022/01/19 14:04:31;;;;;;;14.53;7.83;;;13.50;48.90;;;;;;5050789;28;20477;-70
2022/01/19 14:07:05;;;;;;;17.00;6.80;;;13.50;48.70;;;;;;5052353;28;20946;-70
2022/01/19 14:09:34;;;;;;;10.73;6.57;;;13.40;48.40;;;;;;5052695;28;20446;-70
2022/01/19 14:12:03;;;;;;;10.03;7.30;;;13.40;49.00;;;;;;5051685;28;21030;-70
2022/01/19 14:14:35;;;;;;;12.43;7.83;;;13.40;48.50;;;;;;5051697;28;21000;-69
2022/01/19 14:17:05;;;;;;;11.10;7.60;;;13.40;48.70;;;;;;5051671;28;20468;-70
2022/01/19 14:19:33;;;;;;;13.30;6.83;;;13.30;48.70;;;;;;5050737;28;20489;-70
2022/01/19 14:22:07;;;;;;;13.03;7.30;;;12.90;48.50;;;;;;5051435;28;20935;-70